sensor_id;sensor_type;location;lat;lon;timestamp;P1;durP1;ratioP1;P2;durP2;ratioP2
23290;SDS011;11814;44.686;10.842;2022-12-18T00:01:16;17.75;;;9.95;;
23290;SDS011;11814;44.686;10.842;2022-12-18T00:03:42;17.13;;;9.90;;
23290;SDS011;11814;44.686;10.842;2022-12-18T00:06:08;15.43;;;10.18;;
23290;SDS011;11814;44.686;10.842;2022-12-18T00:08:35;18.80;;;10.35;;
23290;SDS011;11814;44.686;10.842;2022-12-18T00:11:04;14.25;;;10.15;;
23290;SDS011;11814;44.686;10.842;2022-12-18T00:13:34;15.30;;;10.10;;
23290;SDS011;11814;44.686;10.842;2022-12-18T00:16:04;15.27;;;10.68;;
23290;SDS011;11814;44.686;10.842;2022-12-18T00:18:34;17.25;;;11.35;;
23290;SDS011;11814;44.686;10.842;2022-12-18T00:21:01;19.92;;;12.55;;
23290;SDS011;11814;44.686;10.842;2022-12-18T00:23:30;18.88;;;12.48;;
23290;SDS011;11814;44.686;10.842;2022-12-18T00:26:03;20.85;;;13.68;;
23290;SDS011;11814;44.686;10.842;2022-12-18T00:28:31;20.65;;;14.30;;
23290;SDS011;11814;44.686;10.842;2022-12-18T00:31:01;26.30;;;15.90;;
23290;SDS011;11814;44.686;10.842;2022-12-18T00:33:29;23.13;;;15.00;;
23290;SDS011;11814;44.686;10.842;2022-12-18T00:35:59;22.55;;;15.93;;
23290;SDS011;11814;44.686;10.842;2022-12-18T00:38:26;24.40;;;16.83;;
23290;SDS011;11814;44.686;10.842;2022-12-18T00:40:55;23.88;;;15.75;;
23290;SDS011;11814;44.686;10.842;2022-12-18T00:43:21;21.65;;;14.57;;
23290;SDS011;11814;44.686;10.842;2022-12-18T00:45:47;23.13;;;15.30;;
23290;SDS011;11814;44.686;10.842;2022-12-18T00:48:13;24.98;;;16.13;;
23290;SDS011;11814;44.686;10.842;2022-12-18T00:50:38;24.27;;;15.00;;
23290;SDS011;11814;44.686;10.842;2022-12-18T00:53:04;23.02;;;14.23;;
23290;SDS011;11814;44.686;10.842;2022-12-18T00:55:30;21.20;;;13.98;;
23290;SDS011;11814;44.686;10.842;2022-12-18T00:57:56;23.05;;;14.80;;
23290;SDS011;11814;44.686;10.842;2022-12-18T01:00:21;20.77;;;13.20;;
23290;SDS011;11814;44.686;10.842;2022-12-18T01:02:47;22.42;;;13.95;;
23290;SDS011;11814;44.686;10.842;2022-12-18T01:05:13;21.33;;;13.57;;
23290;SDS011;11814;44.686;10.842;2022-12-18T01:07:40;21.63;;;13.65;;
23290;SDS011;11814;44.686;10.842;2022-12-18T01:10:07;20.95;;;13.68;;
23290;SDS011;11814;44.686;10.842;2022-12-18T01:12:34;18.02;;;12.63;;
23290;SDS011;11814;44.686;10.842;2022-12-18T01:15:00;20.10;;;12.95;;
23290;SDS011;11814;44.686;10.842;2022-12-18T01:17:26;17.73;;;12.20;;
23290;SDS011;11814;44.686;10.842;2022-12-18T01:19:52;19.45;;;13.30;;
23290;SDS011;11814;44.686;10.842;2022-12-18T01:22:18;23.05;;;13.45;;
23290;SDS011;11814;44.686;10.842;2022-12-18T01:24:43;18.17;;;12.77;;
23290;SDS011;11814;44.686;10.842;2022-12-18T01:27:09;15.75;;;11.50;;
23290;SDS011;11814;44.686;10.842;2022-12-18T01:29:35;17.40;;;12.90;;
23290;SDS011;11814;44.686;10.842;2022-12-18T01:32:00;18.80;;;12.98;;
23290;SDS011;11814;44.686;10.842;2022-12-18T01:34:26;19.35;;;12.45;;
23290;SDS011;11814;44.686;10.842;2022-12-18T01:36:52;17.92;;;12.15;;
23290;SDS011;11814;44.686;10.842;2022-12-18T01:39:18;19.98;;;12.60;;
23290;SDS011;11814;44.686;10.842;2022-12-18T01:41:44;21.17;;;13.07;;
23290;SDS011;11814;44.686;10.842;2022-12-18T01:50:50;19.17;;;13.02;;
23290;SDS011;11814;44.686;10.842;2022-12-18T01:53:04;17.95;;;11.82;;
23290;SDS011;11814;44.686;10.842;2022-12-18T01:55:46;19.02;;;13.23;;
23290;SDS011;11814;44.686;10.842;2022-12-18T01:58:15;16.95;;;12.20;;
23290;SDS011;11814;44.686;10.842;2022-12-18T02:00:42;19.10;;;13.05;;
23290;SDS011;11814;44.686;10.842;2022-12-18T02:03:08;18.60;;;12.80;;
23290;SDS011;11814;44.686;10.842;2022-12-18T02:08:34;17.52;;;12.15;;
23290;SDS011;11814;44.686;10.842;2022-12-18T02:11:39;18.77;;;12.57;;
23290;SDS011;11814;44.686;10.842;2022-12-18T02:14:21;19.23;;;13.02;;
23290;SDS011;11814;44.686;10.842;2022-12-18T02:17:07;20.08;;;12.68;;
23290;SDS011;11814;44.686;10.842;2022-12-18T02:25:34;17.05;;;11.00;;
23290;SDS011;11814;44.686;10.842;2022-12-18T02:28:18;16.60;;;12.02;;
23290;SDS011;11814;44.686;10.842;2022-12-18T02:30:46;16.55;;;11.77;;
23290;SDS011;11814;44.686;10.842;2022-12-18T02:33:14;15.55;;;11.45;;
23290;SDS011;11814;44.686;10.842;2022-12-18T02:35:40;18.75;;;12.02;;
23290;SDS011;11814;44.686;10.842;2022-12-18T02:38:09;18.42;;;12.18;;
23290;SDS011;11814;44.686;10.842;2022-12-18T02:40:36;16.52;;;12.15;;
23290;SDS011;11814;44.686;10.842;2022-12-18T02:43:07;18.48;;;12.05;;
23290;SDS011;11814;44.686;10.842;2022-12-18T02:45:34;15.75;;;11.25;;
23290;SDS011;11814;44.686;10.842;2022-12-18T02:48:00;15.77;;;11.70;;
23290;SDS011;11814;44.686;10.842;2022-12-18T03:03:59;15.90;;;11.43;;
23290;SDS011;11814;44.686;10.842;2022-12-18T03:06:35;15.43;;;10.95;;
23290;SDS011;11814;44.686;10.842;2022-12-18T03:09:09;14.93;;;11.63;;
23290;SDS011;11814;44.686;10.842;2022-12-18T03:11:40;15.90;;;11.60;;
23290;SDS011;11814;44.686;10.842;2022-12-18T03:14:29;17.48;;;12.65;;
23290;SDS011;11814;44.686;10.842;2022-12-18T03:16:57;15.38;;;11.32;;
23290;SDS011;11814;44.686;10.842;2022-12-18T03:19:27;16.65;;;12.50;;
23290;SDS011;11814;44.686;10.842;2022-12-18T03:21:57;16.80;;;12.35;;
23290;SDS011;11814;44.686;10.842;2022-12-18T03:24:27;16.55;;;11.93;;
23290;SDS011;11814;44.686;10.842;2022-12-18T03:26:58;18.33;;;12.63;;
23290;SDS011;11814;44.686;10.842;2022-12-18T03:29:31;17.38;;;12.13;;
23290;SDS011;11814;44.686;10.842;2022-12-18T03:32:10;15.40;;;10.98;;
23290;SDS011;11814;44.686;10.842;2022-12-18T03:34:41;14.80;;;11.10;;
23290;SDS011;11814;44.686;10.842;2022-12-18T03:37:08;14.05;;;10.07;;
23290;SDS011;11814;44.686;10.842;2022-12-18T03:39:35;12.85;;;9.88;;
23290;SDS011;11814;44.686;10.842;2022-12-18T03:52:29;14.05;;;9.68;;
23290;SDS011;11814;44.686;10.842;2022-12-18T03:55:17;15.07;;;9.70;;
23290;SDS011;11814;44.686;10.842;2022-12-18T03:57:44;13.02;;;10.10;;
23290;SDS011;11814;44.686;10.842;2022-12-18T04:00:13;13.52;;;10.02;;
23290;SDS011;11814;44.686;10.842;2022-12-18T04:02:44;15.35;;;10.65;;
23290;SDS011;11814;44.686;10.842;2022-12-18T04:05:14;14.30;;;10.25;;
23290;SDS011;11814;44.686;10.842;2022-12-18T04:07:42;14.32;;;10.52;;
23290;SDS011;11814;44.686;10.842;2022-12-18T04:10:08;15.60;;;9.93;;
23290;SDS011;11814;44.686;10.842;2022-12-18T04:12:36;14.45;;;10.15;;
23290;SDS011;11814;44.686;10.842;2022-12-18T04:15:02;13.93;;;9.93;;
23290;SDS011;11814;44.686;10.842;2022-12-18T04:17:29;14.13;;;10.13;;
23290;SDS011;11814;44.686;10.842;2022-12-18T04:19:54;12.43;;;9.93;;
23290;SDS011;11814;44.686;10.842;2022-12-18T04:22:20;13.10;;;9.93;;
23290;SDS011;11814;44.686;10.842;2022-12-18T04:24:46;12.05;;;9.07;;
23290;SDS011;11814;44.686;10.842;2022-12-18T04:27:12;13.68;;;9.43;;
23290;SDS011;11814;44.686;10.842;2022-12-18T04:29:37;14.13;;;10.43;;
23290;SDS011;11814;44.686;10.842;2022-12-18T04:32:03;11.85;;;9.07;;
23290;SDS011;11814;44.686;10.842;2022-12-18T04:34:29;12.75;;;9.40;;
23290;SDS011;11814;44.686;10.842;2022-12-18T04:36:55;13.13;;;9.45;;
23290;SDS011;11814;44.686;10.842;2022-12-18T04:39:21;11.50;;;9.38;;
23290;SDS011;11814;44.686;10.842;2022-12-18T04:41:47;13.43;;;9.77;;
23290;SDS011;11814;44.686;10.842;2022-12-18T04:44:12;14.57;;;9.60;;
23290;SDS011;11814;44.686;10.842;2022-12-18T04:46:38;14.48;;;10.63;;
23290;SDS011;11814;44.686;10.842;2022-12-18T04:49:04;13.85;;;9.63;;
23290;SDS011;11814;44.686;10.842;2022-12-18T04:51:29;14.10;;;10.18;;
23290;SDS011;11814;44.686;10.842;2022-12-18T04:53:55;13.07;;;10.35;;
23290;SDS011;11814;44.686;10.842;2022-12-18T04:56:21;15.32;;;10.07;;
23290;SDS011;11814;44.686;10.842;2022-12-18T04:58:47;13.75;;;9.95;;
23290;SDS011;11814;44.686;10.842;2022-12-18T05:01:14;12.52;;;8.93;;
23290;SDS011;11814;44.686;10.842;2022-12-18T05:03:41;11.93;;;9.52;;
23290;SDS011;11814;44.686;10.842;2022-12-18T05:06:07;11.85;;;9.38;;
23290;SDS011;11814;44.686;10.842;2022-12-18T05:08:33;11.88;;;9.45;;
23290;SDS011;11814;44.686;10.842;2022-12-18T05:11:06;14.25;;;9.98;;
23290;SDS011;11814;44.686;10.842;2022-12-18T05:13:39;13.57;;;9.65;;
23290;SDS011;11814;44.686;10.842;2022-12-18T05:16:04;12.18;;;10.15;;
23290;SDS011;11814;44.686;10.842;2022-12-18T05:18:31;15.27;;;10.23;;
23290;SDS011;11814;44.686;10.842;2022-12-18T05:20:57;13.20;;;10.38;;
23290;SDS011;11814;44.686;10.842;2022-12-18T05:23:23;14.57;;;9.32;;
23290;SDS011;11814;44.686;10.842;2022-12-18T05:25:53;14.10;;;10.23;;
23290;SDS011;11814;44.686;10.842;2022-12-18T05:28:20;22.20;;;10.07;;
23290;SDS011;11814;44.686;10.842;2022-12-18T05:30:48;11.80;;;9.43;;
23290;SDS011;11814;44.686;10.842;2022-12-18T05:33:17;14.02;;;9.85;;
23290;SDS011;11814;44.686;10.842;2022-12-18T05:35:44;14.77;;;10.40;;
23290;SDS011;11814;44.686;10.842;2022-12-18T05:38:15;15.07;;;9.43;;
23290;SDS011;11814;44.686;10.842;2022-12-18T05:40:41;12.50;;;9.15;;
23290;SDS011;11814;44.686;10.842;2022-12-18T05:43:08;13.70;;;10.18;;
23290;SDS011;11814;44.686;10.842;2022-12-18T05:45:36;15.48;;;10.20;;
23290;SDS011;11814;44.686;10.842;2022-12-18T05:48:03;12.18;;;9.98;;
23290;SDS011;11814;44.686;10.842;2022-12-18T05:50:29;11.88;;;9.35;;
23290;SDS011;11814;44.686;10.842;2022-12-18T05:52:55;12.65;;;9.98;;
23290;SDS011;11814;44.686;10.842;2022-12-18T05:55:20;17.95;;;10.57;;
23290;SDS011;11814;44.686;10.842;2022-12-18T05:57:46;16.17;;;10.05;;
23290;SDS011;11814;44.686;10.842;2022-12-18T06:00:12;18.38;;;11.05;;
23290;SDS011;11814;44.686;10.842;2022-12-18T06:02:38;16.08;;;10.40;;
23290;SDS011;11814;44.686;10.842;2022-12-18T06:05:04;14.52;;;10.55;;
23290;SDS011;11814;44.686;10.842;2022-12-18T06:07:30;13.48;;;10.75;;
23290;SDS011;11814;44.686;10.842;2022-12-18T06:09:56;11.70;;;9.75;;
23290;SDS011;11814;44.686;10.842;2022-12-18T06:12:21;16.08;;;10.90;;
23290;SDS011;11814;44.686;10.842;2022-12-18T06:14:47;15.38;;;10.52;;
23290;SDS011;11814;44.686;10.842;2022-12-18T06:17:13;14.23;;;8.95;;
23290;SDS011;11814;44.686;10.842;2022-12-18T06:19:39;12.38;;;8.75;;
23290;SDS011;11814;44.686;10.842;2022-12-18T06:22:04;14.30;;;8.85;;
23290;SDS011;11814;44.686;10.842;2022-12-18T06:24:30;15.32;;;10.20;;
23290;SDS011;11814;44.686;10.842;2022-12-18T06:26:56;12.75;;;9.55;;
23290;SDS011;11814;44.686;10.842;2022-12-18T06:29:21;11.55;;;9.68;;
23290;SDS011;11814;44.686;10.842;2022-12-18T06:31:47;11.52;;;9.18;;
23290;SDS011;11814;44.686;10.842;2022-12-18T06:34:13;11.15;;;9.05;;
23290;SDS011;11814;44.686;10.842;2022-12-18T06:36:38;13.85;;;10.55;;
23290;SDS011;11814;44.686;10.842;2022-12-18T06:39:04;15.80;;;9.77;;
23290;SDS011;11814;44.686;10.842;2022-12-18T06:41:30;12.93;;;10.00;;
23290;SDS011;11814;44.686;10.842;2022-12-18T06:43:57;15.60;;;11.07;;
23290;SDS011;11814;44.686;10.842;2022-12-18T06:46:22;14.07;;;10.07;;
23290;SDS011;11814;44.686;10.842;2022-12-18T06:48:49;14.38;;;10.88;;
23290;SDS011;11814;44.686;10.842;2022-12-18T06:51:16;15.23;;;10.52;;
23290;SDS011;11814;44.686;10.842;2022-12-18T06:53:43;10.68;;;9.50;;
23290;SDS011;11814;44.686;10.842;2022-12-18T06:56:08;12.82;;;10.60;;
23290;SDS011;11814;44.686;10.842;2022-12-18T06:58:34;16.45;;;10.43;;
23290;SDS011;11814;44.686;10.842;2022-12-18T07:01:00;12.80;;;9.63;;
23290;SDS011;11814;44.686;10.842;2022-12-18T07:03:28;14.50;;;11.00;;
23290;SDS011;11814;44.686;10.842;2022-12-18T07:05:53;16.95;;;11.27;;
23290;SDS011;11814;44.686;10.842;2022-12-18T07:08:19;16.00;;;10.55;;
23290;SDS011;11814;44.686;10.842;2022-12-18T07:10:46;14.52;;;10.38;;
23290;SDS011;11814;44.686;10.842;2022-12-18T07:13:14;16.27;;;11.40;;
23290;SDS011;11814;44.686;10.842;2022-12-18T07:15:40;17.20;;;12.90;;
23290;SDS011;11814;44.686;10.842;2022-12-18T07:18:06;21.60;;;13.98;;
23290;SDS011;11814;44.686;10.842;2022-12-18T07:20:32;23.58;;;14.00;;
23290;SDS011;11814;44.686;10.842;2022-12-18T07:22:57;17.95;;;13.15;;
23290;SDS011;11814;44.686;10.842;2022-12-18T07:25:23;23.35;;;14.85;;
23290;SDS011;11814;44.686;10.842;2022-12-18T07:27:49;19.73;;;14.80;;
23290;SDS011;11814;44.686;10.842;2022-12-18T07:30:15;23.42;;;16.17;;
23290;SDS011;11814;44.686;10.842;2022-12-18T07:32:40;25.75;;;18.67;;
23290;SDS011;11814;44.686;10.842;2022-12-18T07:35:06;27.23;;;17.95;;
23290;SDS011;11814;44.686;10.842;2022-12-18T07:37:32;28.63;;;20.20;;
23290;SDS011;11814;44.686;10.842;2022-12-18T07:39:58;28.63;;;20.15;;
23290;SDS011;11814;44.686;10.842;2022-12-18T07:42:23;31.20;;;21.38;;
23290;SDS011;11814;44.686;10.842;2022-12-18T07:44:55;29.95;;;20.40;;
23290;SDS011;11814;44.686;10.842;2022-12-18T07:47:21;28.45;;;20.60;;
23290;SDS011;11814;44.686;10.842;2022-12-18T07:49:47;34.03;;;22.92;;
23290;SDS011;11814;44.686;10.842;2022-12-18T07:52:13;34.13;;;24.63;;
23290;SDS011;11814;44.686;10.842;2022-12-18T07:54:39;37.00;;;25.20;;
23290;SDS011;11814;44.686;10.842;2022-12-18T07:57:05;34.95;;;24.50;;
23290;SDS011;11814;44.686;10.842;2022-12-18T07:59:32;35.60;;;25.83;;
23290;SDS011;11814;44.686;10.842;2022-12-18T08:01:57;43.53;;;26.25;;
23290;SDS011;11814;44.686;10.842;2022-12-18T08:04:23;39.20;;;25.88;;
23290;SDS011;11814;44.686;10.842;2022-12-18T08:06:50;36.08;;;26.67;;
23290;SDS011;11814;44.686;10.842;2022-12-18T08:09:16;42.42;;;28.23;;
23290;SDS011;11814;44.686;10.842;2022-12-18T08:11:42;40.53;;;28.45;;
23290;SDS011;11814;44.686;10.842;2022-12-18T08:14:08;40.85;;;29.02;;
23290;SDS011;11814;44.686;10.842;2022-12-18T08:16:33;39.28;;;27.23;;
23290;SDS011;11814;44.686;10.842;2022-12-18T08:18:59;41.13;;;28.67;;
23290;SDS011;11814;44.686;10.842;2022-12-18T08:21:26;41.08;;;28.30;;
23290;SDS011;11814;44.686;10.842;2022-12-18T08:23:54;38.83;;;28.08;;
23290;SDS011;11814;44.686;10.842;2022-12-18T08:26:22;40.08;;;27.63;;
23290;SDS011;11814;44.686;10.842;2022-12-18T08:28:49;38.50;;;27.00;;
23290;SDS011;11814;44.686;10.842;2022-12-18T08:31:15;39.75;;;28.55;;
23290;SDS011;11814;44.686;10.842;2022-12-18T08:33:41;40.90;;;27.80;;
23290;SDS011;11814;44.686;10.842;2022-12-18T08:36:08;38.50;;;27.10;;
23290;SDS011;11814;44.686;10.842;2022-12-18T08:38:35;36.22;;;28.08;;
23290;SDS011;11814;44.686;10.842;2022-12-18T08:41:04;37.80;;;27.52;;
23290;SDS011;11814;44.686;10.842;2022-12-18T08:43:32;37.08;;;26.08;;
23290;SDS011;11814;44.686;10.842;2022-12-18T08:46:17;29.80;;;22.27;;
23290;SDS011;11814;44.686;10.842;2022-12-18T08:48:44;28.73;;;21.10;;
23290;SDS011;11814;44.686;10.842;2022-12-18T08:51:10;27.90;;;19.92;;
23290;SDS011;11814;44.686;10.842;2022-12-18T08:53:36;27.17;;;19.77;;
23290;SDS011;11814;44.686;10.842;2022-12-18T08:56:02;24.02;;;18.45;;
23290;SDS011;11814;44.686;10.842;2022-12-18T08:58:29;22.13;;;15.85;;
23290;SDS011;11814;44.686;10.842;2022-12-18T09:00:59;19.08;;;16.17;;
23290;SDS011;11814;44.686;10.842;2022-12-18T09:03:26;22.02;;;16.98;;
23290;SDS011;11814;44.686;10.842;2022-12-18T09:05:52;21.50;;;16.80;;
23290;SDS011;11814;44.686;10.842;2022-12-18T09:08:18;23.63;;;17.02;;
23290;SDS011;11814;44.686;10.842;2022-12-18T09:10:44;21.83;;;16.75;;
23290;SDS011;11814;44.686;10.842;2022-12-18T09:13:12;21.05;;;16.70;;
23290;SDS011;11814;44.686;10.842;2022-12-18T09:15:49;20.30;;;16.52;;
23290;SDS011;11814;44.686;10.842;2022-12-18T09:18:17;20.70;;;16.17;;
23290;SDS011;11814;44.686;10.842;2022-12-18T09:20:44;19.33;;;15.63;;
23290;SDS011;11814;44.686;10.842;2022-12-18T09:23:10;17.85;;;14.73;;
23290;SDS011;11814;44.686;10.842;2022-12-18T09:25:36;18.50;;;14.98;;
23290;SDS011;11814;44.686;10.842;2022-12-18T09:28:03;18.75;;;14.40;;
23290;SDS011;11814;44.686;10.842;2022-12-18T09:30:43;17.80;;;14.32;;
23290;SDS011;11814;44.686;10.842;2022-12-18T09:33:10;18.52;;;15.73;;
23290;SDS011;11814;44.686;10.842;2022-12-18T09:35:40;20.00;;;15.40;;
23290;SDS011;11814;44.686;10.842;2022-12-18T09:38:08;19.02;;;15.23;;
23290;SDS011;11814;44.686;10.842;2022-12-18T09:40:42;18.33;;;13.82;;
23290;SDS011;11814;44.686;10.842;2022-12-18T09:43:20;18.60;;;15.02;;
23290;SDS011;11814;44.686;10.842;2022-12-18T09:45:49;18.38;;;15.50;;
23290;SDS011;11814;44.686;10.842;2022-12-18T09:48:39;19.10;;;14.85;;
23290;SDS011;11814;44.686;10.842;2022-12-18T09:51:11;21.42;;;14.98;;
23290;SDS011;11814;44.686;10.842;2022-12-18T09:53:40;25.13;;;16.25;;
23290;SDS011;11814;44.686;10.842;2022-12-18T09:56:12;19.08;;;15.75;;
23290;SDS011;11814;44.686;10.842;2022-12-18T09:58:45;18.10;;;15.40;;
23290;SDS011;11814;44.686;10.842;2022-12-18T10:01:18;19.80;;;15.60;;
23290;SDS011;11814;44.686;10.842;2022-12-18T10:03:47;21.00;;;16.30;;
23290;SDS011;11814;44.686;10.842;2022-12-18T10:06:15;20.30;;;16.10;;
23290;SDS011;11814;44.686;10.842;2022-12-18T10:08:59;21.92;;;16.88;;
23290;SDS011;11814;44.686;10.842;2022-12-18T10:11:29;21.65;;;15.95;;
23290;SDS011;11814;44.686;10.842;2022-12-18T10:19:59;18.65;;;14.75;;
23290;SDS011;11814;44.686;10.842;2022-12-18T10:22:41;20.42;;;15.18;;
23290;SDS011;11814;44.686;10.842;2022-12-18T10:25:40;22.45;;;16.92;;
23290;SDS011;11814;44.686;10.842;2022-12-18T10:28:20;20.73;;;15.68;;
23290;SDS011;11814;44.686;10.842;2022-12-18T10:30:47;16.55;;;13.27;;
23290;SDS011;11814;44.686;10.842;2022-12-18T10:33:23;19.38;;;15.07;;
23290;SDS011;11814;44.686;10.842;2022-12-18T10:35:53;17.85;;;14.90;;
23290;SDS011;11814;44.686;10.842;2022-12-18T10:38:29;31.30;;;20.55;;
23290;SDS011;11814;44.686;10.842;2022-12-18T10:41:04;35.55;;;22.45;;
23290;SDS011;11814;44.686;10.842;2022-12-18T10:43:43;21.60;;;16.73;;
23290;SDS011;11814;44.686;10.842;2022-12-18T10:51:04;18.20;;;14.20;;
23290;SDS011;11814;44.686;10.842;2022-12-18T10:53:33;20.70;;;15.80;;
23290;SDS011;11814;44.686;10.842;2022-12-18T10:56:01;21.13;;;16.45;;
23290;SDS011;11814;44.686;10.842;2022-12-18T11:03:43;20.27;;;15.32;;
23290;SDS011;11814;44.686;10.842;2022-12-18T11:06:24;34.75;;;23.60;;
23290;SDS011;11814;44.686;10.842;2022-12-18T11:11:29;20.88;;;15.75;;
23290;SDS011;11814;44.686;10.842;2022-12-18T11:14:04;21.98;;;17.17;;
23290;SDS011;11814;44.686;10.842;2022-12-18T11:16:36;39.50;;;27.65;;
23290;SDS011;11814;44.686;10.842;2022-12-18T11:21:50;28.75;;;21.45;;
23290;SDS011;11814;44.686;10.842;2022-12-18T11:24:25;26.88;;;19.52;;
23290;SDS011;11814;44.686;10.842;2022-12-18T11:26:58;23.20;;;17.13;;
23290;SDS011;11814;44.686;10.842;2022-12-18T11:29:40;31.92;;;22.05;;
23290;SDS011;11814;44.686;10.842;2022-12-18T11:37:54;20.00;;;15.63;;
23290;SDS011;11814;44.686;10.842;2022-12-18T11:40:30;21.73;;;17.42;;
23290;SDS011;11814;44.686;10.842;2022-12-18T11:43:13;22.85;;;16.88;;
23290;SDS011;11814;44.686;10.842;2022-12-18T11:45:49;22.92;;;17.92;;
23290;SDS011;11814;44.686;10.842;2022-12-18T11:48:48;21.83;;;16.27;;
23290;SDS011;11814;44.686;10.842;2022-12-18T11:51:22;21.70;;;16.17;;
23290;SDS011;11814;44.686;10.842;2022-12-18T11:53:57;18.35;;;14.18;;
23290;SDS011;11814;44.686;10.842;2022-12-18T12:12:38;14.75;;;12.35;;
23290;SDS011;11814;44.686;10.842;2022-12-18T12:18:05;18.10;;;13.40;;
23290;SDS011;11814;44.686;10.842;2022-12-18T12:26:07;13.75;;;12.27;;
23290;SDS011;11814;44.686;10.842;2022-12-18T12:28:59;18.48;;;14.38;;
23290;SDS011;11814;44.686;10.842;2022-12-18T12:39:52;15.00;;;12.23;;
23290;SDS011;11814;44.686;10.842;2022-12-18T12:45:28;14.73;;;10.90;;
23290;SDS011;11814;44.686;10.842;2022-12-18T12:48:18;18.42;;;14.85;;
23290;SDS011;11814;44.686;10.842;2022-12-18T12:50:51;18.42;;;14.02;;
23290;SDS011;11814;44.686;10.842;2022-12-18T12:53:22;21.65;;;15.60;;
23290;SDS011;11814;44.686;10.842;2022-12-18T12:55:55;20.63;;;15.63;;
23290;SDS011;11814;44.686;10.842;2022-12-18T13:04:14;17.80;;;14.35;;
23290;SDS011;11814;44.686;10.842;2022-12-18T13:09:24;18.90;;;14.35;;
23290;SDS011;11814;44.686;10.842;2022-12-18T13:11:54;20.27;;;15.65;;
23290;SDS011;11814;44.686;10.842;2022-12-18T13:14:54;19.48;;;14.73;;
23290;SDS011;11814;44.686;10.842;2022-12-18T13:17:39;21.17;;;15.55;;
23290;SDS011;11814;44.686;10.842;2022-12-18T13:20:11;21.45;;;14.85;;
23290;SDS011;11814;44.686;10.842;2022-12-18T13:41:00;19.25;;;14.85;;
23290;SDS011;11814;44.686;10.842;2022-12-18T13:46:27;23.42;;;17.52;;
23290;SDS011;11814;44.686;10.842;2022-12-18T13:51:43;23.80;;;17.42;;
23290;SDS011;11814;44.686;10.842;2022-12-18T13:54:19;24.67;;;18.40;;
23290;SDS011;11814;44.686;10.842;2022-12-18T13:56:47;24.65;;;18.02;;
23290;SDS011;11814;44.686;10.842;2022-12-18T13:59:21;25.05;;;18.08;;
23290;SDS011;11814;44.686;10.842;2022-12-18T14:01:56;23.88;;;17.38;;
23290;SDS011;11814;44.686;10.842;2022-12-18T14:04:25;25.95;;;18.17;;
23290;SDS011;11814;44.686;10.842;2022-12-18T14:06:53;27.88;;;18.90;;
23290;SDS011;11814;44.686;10.842;2022-12-18T14:09:42;29.48;;;19.73;;
23290;SDS011;11814;44.686;10.842;2022-12-18T14:12:44;24.48;;;16.17;;
23290;SDS011;11814;44.686;10.842;2022-12-18T14:17:54;25.88;;;18.77;;
23290;SDS011;11814;44.686;10.842;2022-12-18T14:20:21;23.27;;;16.40;;
23290;SDS011;11814;44.686;10.842;2022-12-18T14:22:48;24.35;;;17.85;;
23290;SDS011;11814;44.686;10.842;2022-12-18T14:25:15;26.73;;;18.15;;
23290;SDS011;11814;44.686;10.842;2022-12-18T14:28:04;26.40;;;18.83;;
23290;SDS011;11814;44.686;10.842;2022-12-18T14:30:40;30.67;;;19.73;;
23290;SDS011;11814;44.686;10.842;2022-12-18T14:33:14;28.85;;;19.80;;
23290;SDS011;11814;44.686;10.842;2022-12-18T14:35:51;33.65;;;23.00;;
23290;SDS011;11814;44.686;10.842;2022-12-18T14:38:32;31.33;;;21.67;;
23290;SDS011;11814;44.686;10.842;2022-12-18T14:43:29;37.25;;;22.95;;
23290;SDS011;11814;44.686;10.842;2022-12-18T14:45:57;38.58;;;24.52;;
23290;SDS011;11814;44.686;10.842;2022-12-18T14:48:33;35.78;;;22.17;;
23290;SDS011;11814;44.686;10.842;2022-12-18T14:53:36;36.03;;;23.35;;
23290;SDS011;11814;44.686;10.842;2022-12-18T14:56:19;34.35;;;22.80;;
23290;SDS011;11814;44.686;10.842;2022-12-18T14:58:54;33.72;;;22.08;;
23290;SDS011;11814;44.686;10.842;2022-12-18T15:01:23;35.05;;;24.05;;
23290;SDS011;11814;44.686;10.842;2022-12-18T15:03:54;33.40;;;22.27;;
23290;SDS011;11814;44.686;10.842;2022-12-18T15:06:26;39.42;;;24.77;;
23290;SDS011;11814;44.686;10.842;2022-12-18T15:08:52;43.08;;;25.50;;
23290;SDS011;11814;44.686;10.842;2022-12-18T15:11:54;39.85;;;26.02;;
23290;SDS011;11814;44.686;10.842;2022-12-18T15:16:55;38.13;;;24.65;;
23290;SDS011;11814;44.686;10.842;2022-12-18T15:19:22;39.25;;;23.73;;
23290;SDS011;11814;44.686;10.842;2022-12-18T15:22:03;38.97;;;23.95;;
23290;SDS011;11814;44.686;10.842;2022-12-18T15:24:30;40.22;;;23.95;;
23290;SDS011;11814;44.686;10.842;2022-12-18T15:26:57;39.83;;;25.13;;
23290;SDS011;11814;44.686;10.842;2022-12-18T15:29:23;38.15;;;25.45;;
23290;SDS011;11814;44.686;10.842;2022-12-18T15:34:27;40.03;;;25.30;;
23290;SDS011;11814;44.686;10.842;2022-12-18T15:36:53;41.58;;;25.90;;
23290;SDS011;11814;44.686;10.842;2022-12-18T15:39:19;42.97;;;26.23;;
23290;SDS011;11814;44.686;10.842;2022-12-18T15:41:45;38.72;;;24.92;;
23290;SDS011;11814;44.686;10.842;2022-12-18T15:44:29;49.08;;;28.02;;
23290;SDS011;11814;44.686;10.842;2022-12-18T15:46:55;44.88;;;26.48;;
23290;SDS011;11814;44.686;10.842;2022-12-18T15:49:20;50.80;;;28.80;;
23290;SDS011;11814;44.686;10.842;2022-12-18T15:51:48;48.67;;;28.35;;
23290;SDS011;11814;44.686;10.842;2022-12-18T15:54:23;46.72;;;27.50;;
23290;SDS011;11814;44.686;10.842;2022-12-18T15:57:09;45.08;;;28.40;;
23290;SDS011;11814;44.686;10.842;2022-12-18T15:59:48;50.78;;;29.55;;
23290;SDS011;11814;44.686;10.842;2022-12-18T16:02:15;49.47;;;29.65;;
23290;SDS011;11814;44.686;10.842;2022-12-18T16:04:42;49.20;;;27.90;;
23290;SDS011;11814;44.686;10.842;2022-12-18T16:07:08;47.15;;;29.13;;
23290;SDS011;11814;44.686;10.842;2022-12-18T16:09:34;49.30;;;29.88;;
23290;SDS011;11814;44.686;10.842;2022-12-18T16:12:00;52.33;;;30.08;;
23290;SDS011;11814;44.686;10.842;2022-12-18T16:14:27;48.85;;;29.00;;
23290;SDS011;11814;44.686;10.842;2022-12-18T16:16:59;51.35;;;30.83;;
23290;SDS011;11814;44.686;10.842;2022-12-18T16:19:26;67.25;;;36.88;;
23290;SDS011;11814;44.686;10.842;2022-12-18T16:21:53;76.82;;;41.63;;
23290;SDS011;11814;44.686;10.842;2022-12-18T16:24:21;67.53;;;35.70;;
23290;SDS011;11814;44.686;10.842;2022-12-18T16:26:52;54.30;;;31.55;;
23290;SDS011;11814;44.686;10.842;2022-12-18T16:29:19;55.67;;;31.52;;
23290;SDS011;11814;44.686;10.842;2022-12-18T16:31:49;52.15;;;29.80;;
23290;SDS011;11814;44.686;10.842;2022-12-18T16:34:21;52.67;;;29.40;;
23290;SDS011;11814;44.686;10.842;2022-12-18T16:36:58;53.90;;;31.80;;
23290;SDS011;11814;44.686;10.842;2022-12-18T16:39:28;62.05;;;33.08;;
23290;SDS011;11814;44.686;10.842;2022-12-18T16:41:55;59.33;;;33.22;;
23290;SDS011;11814;44.686;10.842;2022-12-18T16:44:21;56.95;;;31.60;;
23290;SDS011;11814;44.686;10.842;2022-12-18T16:46:47;55.17;;;31.90;;
23290;SDS011;11814;44.686;10.842;2022-12-18T16:49:16;60.88;;;32.92;;
23290;SDS011;11814;44.686;10.842;2022-12-18T16:51:43;57.22;;;34.60;;
23290;SDS011;11814;44.686;10.842;2022-12-18T16:54:11;58.47;;;32.97;;